< < Back
Terminal Aerodrome Forecast


Current Version              Previous Versions:   1  2  3  4  5  6  7  8  9  

Terminal Aerodrome Forecast

370
FTUS42 KGSP 112330
TAFHKY
TAF
KHKY 112330Z 1200/1224 32005KT P6SM FEW250
     FM121000 00000KT P6SM -SN BKN100
     FM121800 24006KT P6SM BKN050
     FM122300 26006KT P6SM SCT050=

Latest METAR

419
SAUS70 KWBC 121400 RRF
MTRHKY
METAR KHKY 121353Z 06004KT 10SM OVC090 M02/M13 A3019 RMK AO2 SLP222
T10171133


USA.gov is the U.S. government's official web portal to all federal, state and local government web resources and services.